Time;durP1;ratioP1;P1;durP2;ratioP2;P2;SDS_P1;SDS_P2;PMS_P1;PMS_P2;Temp;Humidity;BMP_temperature;BMP_pressure;BME280_temperature;BME280_humidity;BME280_pressure;Samples;Min_cycle;Max_cycle;Signal;HPM_P1;HPM_P2
2023/11/06 00:01:05;;;;;;;6.00;1.20;;;;;;;10.60;100.00;98628.22;5052455;28;20053;-76
2023/11/06 00:03:33;;;;;;;4.15;1.38;;;;;;;10.61;100.00;98646.66;5053729;28;20059;-76
2023/11/06 00:06:02;;;;;;;7.00;1.40;;;;;;;10.59;100.00;98630.03;5028015;28;20049;-73
2023/11/06 00:08:32;;;;;;;7.32;1.88;;;;;;;10.57;100.00;98633.75;5053283;28;20045;-74
2023/11/06 00:11:00;;;;;;;7.10;1.13;;;;;;;10.44;100.00;98629.38;5056702;28;20056;-75
2023/11/06 00:13:29;;;;;;;4.97;1.60;;;;;;;10.48;100.00;98645.88;5051373;28;20045;-74
2023/11/06 00:16:00;;;;;;;4.55;1.45;;;;;;;10.42;100.00;98649.81;5046024;28;20077;-75
2023/11/06 00:18:32;;;;;;;8.77;1.23;;;;;;;10.43;100.00;98648.88;5055217;28;20053;-75
2023/11/06 00:21:12;;;;;;;3.83;1.35;;;;;;;10.47;100.00;98654.78;5068137;28;20052;-75
2023/11/06 00:23:42;;;;;;;5.55;1.23;;;;;;;10.52;100.00;98657.94;5050792;28;20061;-74
2023/11/06 00:26:14;;;;;;;9.23;1.73;;;;;;;10.45;100.00;98654.03;5076637;28;20052;-74
2023/11/06 00:28:53;;;;;;;4.75;1.20;;;;;;;10.44;100.00;98650.56;5035600;28;20052;-74
2023/11/06 00:31:24;;;;;;;4.63;1.10;;;;;;;10.54;100.00;98650.72;5051464;28;20041;-74
2023/11/06 00:33:53;;;;;;;5.88;1.58;;;;;;;10.55;100.00;98669.13;5053990;28;20044;-73
2023/11/06 00:36:23;;;;;;;7.53;1.92;;;;;;;10.60;100.00;98670.59;5044033;28;20037;-73
2023/11/06 00:38:53;;;;;;;6.03;1.50;;;;;;;10.60;100.00;98674.06;5063182;28;20037;-73
2023/11/06 00:41:23;;;;;;;7.97;1.30;;;;;;;10.66;100.00;98668.34;5052988;28;20049;-74
2023/11/06 00:43:52;;;;;;;8.27;1.38;;;;;;;10.68;100.00;98679.66;5051404;28;20505;-74
2023/11/06 00:46:20;;;;;;;6.10;1.23;;;;;;;10.61;100.00;98662.53;5055554;28;20132;-75
2023/11/06 00:48:50;;;;;;;5.88;1.40;;;;;;;10.73;100.00;98674.84;5053145;28;20053;-74
2023/11/06 00:51:22;;;;;;;4.65;1.13;;;;;;;10.65;100.00;98671.94;5063827;28;20044;-76
2023/11/06 00:53:50;;;;;;;7.57;1.50;;;;;;;10.70;100.00;98674.25;5055679;28;20041;-76
2023/11/06 00:56:20;;;;;;;4.05;1.30;;;;;;;10.72;100.00;98686.41;5031597;28;20072;-75
2023/11/06 00:58:52;;;;;;;5.95;1.23;;;;;;;10.73;100.00;98684.59;5050148;28;20060;-75
2023/11/06 01:01:21;;;;;;;7.47;1.45;;;;;;;10.73;100.00;98690.72;5076801;28;20045;-75
2023/11/06 01:03:49;;;;;;;6.57;1.17;;;;;;;10.65;100.00;98669.28;5058764;28;20060;-76
2023/11/06 01:06:18;;;;;;;4.60;1.20;;;;;;;10.62;100.00;98671.31;5060898;28;20049;-75
2023/11/06 01:08:46;;;;;;;8.82;1.65;;;;;;;10.82;100.00;98699.81;5054367;28;20044;-73
2023/11/06 01:11:16;;;;;;;7.32;1.88;;;;;;;10.80;100.00;98704.38;5048549;28;20069;-74
2023/11/06 01:13:46;;;;;;;4.20;1.40;;;;;;;10.81;100.00;98700.78;5051189;28;20125;-74
2023/11/06 01:16:17;;;;;;;5.78;1.38;;;;;;;10.78;100.00;98704.47;5045674;28;20136;-76
2023/11/06 01:18:49;;;;;;;8.48;1.50;;;;;;;10.77;100.00;98701.94;5066874;28;20033;-74
2023/11/06 01:21:23;;;;;;;7.43;1.50;;;;;;;10.72;100.00;98704.94;5075474;28;20055;-76
2023/11/06 01:23:51;;;;;;;8.02;1.45;;;;;;;10.68;100.00;98711.44;5061177;28;20416;-76
2023/11/06 01:26:21;;;;;;;7.53;1.75;;;;;;;10.72;100.00;98704.94;5027921;28;20041;-73
2023/11/06 01:28:51;;;;;;;5.65;1.33;;;;;;;10.50;100.00;98658.06;5051596;28;20071;-74
2023/11/06 01:31:20;;;;;;;7.88;1.40;;;;;;;10.79;100.00;98716.75;5057938;28;20041;-74
2023/11/06 01:33:51;;;;;;;6.45;1.73;;;;;;;10.75;100.00;98710.00;5042199;28;20103;-74
2023/11/06 01:36:21;;;;;;;5.55;1.20;;;;;;;10.75;100.00;98723.25;5055493;28;20049;-74
2023/11/06 01:38:49;;;;;;;6.15;1.23;;;;;;;10.75;100.00;98711.81;5063117;28;20459;-75
2023/11/06 01:41:18;;;;;;;5.47;1.30;;;;;;;10.76;100.00;98714.34;5054415;28;20049;-74
2023/11/06 01:43:47;;;;;;;4.78;1.27;;;;;;;10.71;100.00;98721.75;5051691;28;20053;-73
2023/11/06 01:46:20;;;;;;;5.75;1.45;;;;;;;10.70;100.00;98730.69;5051859;28;20056;-74
2023/11/06 01:48:52;;;;;;;8.25;1.45;;;;;;;10.65;100.00;98722.25;5064536;28;20108;-74
2023/11/06 01:51:20;;;;;;;;;;;;;;;10.71;100.00;98727.06;5063645;28;20053;-74
2023/11/06 01:53:50;;;;;;;6.93;1.27;;;;;;;10.71;100.00;98726.22;5060161;28;19932;-75
2023/11/06 01:56:18;;;;;;;6.93;1.45;;;;;;;10.69;100.00;98738.75;5040878;28;20048;-74
2023/11/06 01:58:47;;;;;;;6.95;1.50;;;;;;;10.69;100.00;98738.75;5055922;28;20045;-75
2023/11/06 02:01:16;;;;;;;6.43;1.30;;;;;;;10.68;100.00;98737.91;5068155;28;20083;-74
2023/11/06 02:03:47;;;;;;;10.10;2.05;;;;;;;10.76;100.00;98734.69;5050692;28;20506;-74
2023/11/06 02:06:15;;;;;;;7.28;2.20;;;;;;;10.72;100.00;98723.47;5047187;28;20049;-74
2023/11/06 02:08:45;;;;;;;5.20;1.40;;;;;;;10.90;100.00;98745.94;5066741;28;20052;-74
2023/11/06 02:11:14;;;;;;;6.38;1.63;;;;;;;10.91;100.00;98749.41;5061714;28;20052;-74
2023/11/06 02:13:43;;;;;;;8.20;1.42;;;;;;;10.87;100.00;98743.50;5066376;28;20049;-74
2023/11/06 02:16:13;;;;;;;7.53;1.58;;;;;;;10.92;100.00;98752.91;5033373;28;20136;-74
2023/11/06 02:18:42;;;;;;;6.57;1.65;;;;;;;10.92;100.00;98752.91;5049315;28;20505;-74
2023/11/06 02:21:12;;;;;;;6.45;1.70;;;;;;;10.89;100.00;98752.19;5050465;28;20421;-74
2023/11/06 02:23:43;;;;;;;5.68;1.52;;;;;;;10.92;100.00;98753.75;5051134;28;20053;-74
2023/11/06 02:26:12;;;;;;;5.75;1.27;;;;;;;10.90;100.00;98758.31;5040999;28;20378;-74
2023/11/06 02:28:41;;;;;;;7.10;1.30;;;;;;;10.87;100.00;98759.38;5059614;28;20072;-74
2023/11/06 02:31:09;;;;;;;8.23;1.83;;;;;;;10.84;100.00;98754.34;5064544;28;20510;-73
2023/11/06 02:33:40;;;;;;;7.60;1.50;;;;;;;10.95;100.00;98766.78;5047076;28;20048;-73
2023/11/06 02:36:08;;;;;;;5.93;1.30;;;;;;;10.97;100.00;98774.63;5038239;28;20045;-74
2023/11/06 02:38:37;;;;;;;9.13;1.67;;;;;;;10.96;100.00;98768.47;5050904;28;20119;-74
2023/11/06 02:41:08;;;;;;;6.28;1.52;;;;;;;10.92;100.00;98776.75;5052909;28;20045;-76
2023/11/06 02:43:36;;;;;;;;;;;;;;;10.93;100.00;98781.09;5040015;28;20052;-73
2023/11/06 02:46:04;;;;;;;8.18;1.58;;;;;;;10.94;100.00;98788.94;5040892;28;19925;-73
2023/11/06 02:48:34;;;;;;;5.88;1.25;;;;;;;10.81;100.00;98775.75;5050140;28;20049;-74
2023/11/06 02:51:03;;;;;;;8.30;1.40;;;;;;;10.89;100.00;98794.56;5044974;28;20033;-72
2023/11/06 02:53:31;;;;;;;6.80;1.30;;;;;;;10.87;100.00;98779.72;5062439;28;20053;-74
2023/11/06 02:55:59;;;;;;;7.15;1.00;;;;;;;10.85;100.00;98787.81;5047359;28;20053;-75
2023/11/06 02:58:32;;;;;;;8.88;1.38;;;;;;;10.84;100.00;98793.22;5069123;28;20056;-73
2023/11/06 03:01:00;;;;;;;7.03;1.40;;;;;;;10.84;100.00;98802.00;5047173;28;20706;-75
2023/11/06 03:03:33;;;;;;;6.20;1.58;;;;;;;10.81;100.00;98802.22;5055418;28;20167;-74
2023/11/06 03:06:01;;;;;;;6.53;1.65;;;;;;;10.81;100.00;98807.53;5052191;28;20272;-74
2023/11/06 03:08:30;;;;;;;7.63;1.48;;;;;;;10.70;100.00;98794.22;5051987;28;20087;-75
2023/11/06 03:10:58;;;;;;;5.32;1.20;;;;;;;10.82;100.00;98813.66;5036996;28;20047;-74
2023/11/06 03:13:27;;;;;;;7.40;1.10;;;;;;;10.74;100.00;98803.63;5053640;28;20045;-75
2023/11/06 03:15:56;;;;;;;9.02;1.40;;;;;;;10.84;100.00;98820.53;5043494;28;20049;-74
2023/11/06 03:18:25;;;;;;;7.32;1.02;;;;;;;10.87;100.00;98812.34;5052885;28;20037;-74
2023/11/06 03:20:55;;;;;;;2.20;0.73;;;;;;;10.90;100.00;98822.72;5053442;28;20052;-74
2023/11/06 03:23:24;;;;;;;11.07;1.63;;;;;;;10.90;100.00;98817.44;5049798;28;20103;-74
2023/11/06 03:25:54;;;;;;;5.22;1.00;;;;;;;10.87;100.00;98825.59;5062009;28;20049;-73
2023/11/06 03:28:25;;;;;;;6.90;1.02;;;;;;;10.85;100.00;98826.69;5049387;28;20049;-75
2023/11/06 03:30:55;;;;;;;5.35;1.35;;;;;;;10.74;100.00;98816.00;5070258;28;20044;-74
2023/11/06 03:33:25;;;;;;;10.05;1.23;;;;;;;10.81;100.00;98825.22;5038773;28;20056;-75
2023/11/06 03:35:55;;;;;;;5.80;1.17;;;;;;;10.77;100.00;98835.16;5051336;28;20033;-74
2023/11/06 03:38:23;;;;;;;6.32;0.90;;;;;;;10.71;100.00;98837.41;5067226;28;20052;-74
2023/11/06 03:40:55;;;;;;;4.65;0.98;;;;;;;10.55;100.00;98821.78;5050683;28;20132;-74
2023/11/06 03:43:25;;;;;;;5.57;1.20;;;;;;;10.61;100.00;98837.22;5059845;28;20041;-76
2023/11/06 03:45:55;;;;;;;4.78;1.10;;;;;;;10.62;100.00;98851.31;5049081;28;20103;-74
2023/11/06 03:48:25;;;;;;;7.90;0.98;;;;;;;10.50;100.00;98845.09;5055858;28;20449;-72
2023/11/06 03:50:55;;;;;;;5.88;0.93;;;;;;;10.53;100.00;98860.78;5064515;28;20069;-73
2023/11/06 03:53:26;;;;;;;4.65;0.98;;;;;;;10.52;100.00;98861.72;5066639;28;20146;-75
2023/11/06 03:55:55;;;;;;;6.05;0.80;;;;;;;10.49;100.00;98860.13;5059949;28;20049;-73
2023/11/06 03:58:24;;;;;;;6.60;1.20;;;;;;;10.51;100.00;98865.31;5055089;28;20061;-74
2023/11/06 04:00:53;;;;;;;2.78;0.82;;;;;;;10.54;100.00;98857.19;5050002;28;20521;-74
2023/11/06 04:03:24;;;;;;;5.77;0.90;;;;;;;10.58;100.00;98874.50;5049770;28;20050;-75
2023/11/06 04:05:56;;;;;;;4.25;1.00;;;;;;;10.42;100.00;98865.97;5035349;28;20483;-75
2023/11/06 04:08:24;;;;;;;6.05;0.90;;;;;;;10.41;100.00;98873.06;5049705;28;20075;-75
2023/11/06 04:10:52;;;;;;;5.57;0.75;;;;;;;10.41;100.00;98883.63;5049124;28;20088;-75
2023/11/06 04:13:20;;;;;;;6.57;0.80;;;;;;;10.54;100.00;98904.81;5064709;28;20128;-74
2023/11/06 04:15:48;;;;;;;4.43;1.00;;;;;;;10.57;100.00;98903.72;5053587;28;20052;-75
2023/11/06 04:18:16;;;;;;;6.30;1.00;;;;;;;10.55;100.00;98902.03;5062270;28;20159;-75
2023/11/06 04:20:45;;;;;;;8.85;1.40;;;;;;;10.57;100.00;98909.88;5052481;28;20042;-73
2023/11/06 04:23:15;;;;;;;4.80;0.77;;;;;;;10.55;100.00;98914.41;5055430;28;20148;-76
2023/11/06 04:25:47;;;;;;;2.40;0.60;;;;;;;10.58;100.00;98906.28;5052055;28;20513;-74
2023/11/06 04:28:16;;;;;;;5.45;0.88;;;;;;;10.57;100.00;98912.50;5046822;28;20177;-74
2023/11/06 04:30:45;;;;;;;5.43;0.70;;;;;;;10.57;100.00;98922.25;5051663;28;20120;-72
2023/11/06 04:33:15;;;;;;;6.28;1.23;;;;;;;10.52;100.00;98927.91;5053954;28;20060;-73
2023/11/06 04:35:44;;;;;;;3.93;0.90;;;;;;;10.45;100.00;98934.56;5062427;28;20075;-74
2023/11/06 04:38:12;;;;;;;4.78;0.95;;;;;;;10.40;100.00;98929.56;5050790;28;20503;-73
2023/11/06 04:40:42;;;;;;;3.25;0.88;;;;;;;10.18;100.00;98903.78;5051088;28;20476;-73
2023/11/06 04:43:10;;;;;;;7.13;1.02;;;;;;;10.21;100.00;98917.75;5052239;28;20048;-75
2023/11/06 04:45:38;;;;;;;3.50;0.80;;;;;;;10.31;100.00;98924.09;5050179;28;20138;-75
2023/11/06 04:48:07;;;;;;;5.15;1.30;;;;;;;10.30;100.00;98932.97;5043231;28;20091;-74
2023/11/06 04:50:35;;;;;;;6.07;1.40;;;;;;;10.31;100.00;98945.25;5044071;28;20123;-75
2023/11/06 04:53:04;;;;;;;5.32;0.90;;;;;;;10.27;100.00;98949.06;5053617;28;20048;-75
2023/11/06 04:55:32;;;;;;;2.83;0.60;;;;;;;10.19;100.00;98944.31;5050638;28;20053;-74
2023/11/06 04:58:02;;;;;;;4.97;0.73;;;;;;;10.26;100.00;98963.22;5044359;28;20040;-76
2023/11/06 05:00:31;;;;;;;7.35;0.98;;;;;;;10.27;100.00;98963.13;5049039;28;20115;-76
2023/11/06 05:03:02;;;;;;;5.50;1.05;;;;;;;10.30;100.00;98967.38;5070962;28;20056;-74
2023/11/06 05:05:30;;;;;;;7.45;1.35;;;;;;;10.28;100.00;98966.63;5048724;28;20147;-74
2023/11/06 05:07:58;;;;;;;6.05;0.80;;;;;;;10.33;100.00;98975.94;5053029;28;20077;-74
2023/11/06 05:10:28;;;;;;;4.78;0.98;;;;;;;10.23;100.00;98953.69;5065580;28;20051;-74
2023/11/06 05:12:58;;;;;;;3.50;0.82;;;;;;;10.32;100.00;98965.47;5049603;28;20049;-74
2023/11/06 05:15:32;;;;;;;5.65;0.95;;;;;;;10.30;100.00;98970.00;5051917;28;20045;-75
2023/11/06 05:18:02;;;;;;;3.67;1.08;;;;;;;10.27;100.00;98980.78;5045346;28;20051;-75
2023/11/06 05:20:30;;;;;;;5.63;0.80;;;;;;;10.24;100.00;98981.00;5054361;28;20057;-74
2023/11/06 05:22:59;;;;;;;5.15;1.20;;;;;;;10.16;100.00;98979.72;5048492;28;20429;-74
2023/11/06 05:25:28;;;;;;;3.43;0.70;;;;;;;10.24;100.00;98981.00;5035897;28;20640;-76
2023/11/06 05:27:57;;;;;;;5.05;1.00;;;;;;;10.11;100.00;98971.22;5042833;28;20048;-74
2023/11/06 05:30:29;;;;;;;7.75;1.13;;;;;;;10.24;100.00;98987.13;5051286;28;20037;-75
2023/11/06 05:32:58;;;;;;;6.00;0.98;;;;;;;10.21;100.00;98990.03;5049902;28;20041;-74
2023/11/06 05:35:26;;;;;;;10.10;1.13;;;;;;;10.21;100.00;98999.75;5036823;28;20425;-74
2023/11/06 05:37:56;;;;;;;3.35;0.80;;;;;;;10.14;100.00;99007.22;5027415;28;20068;-75
2023/11/06 05:40:25;;;;;;;3.30;0.75;;;;;;;10.13;100.00;99006.34;5058683;28;20151;-74
2023/11/06 05:42:53;;;;;;;5.93;1.23;;;;;;;10.15;100.00;99011.53;5062001;28;20075;-73
2023/11/06 05:45:22;;;;;;;7.25;0.90;;;;;;;9.99;100.00;99002.94;5065285;28;20098;-74
2023/11/06 05:47:53;;;;;;;9.80;1.17;;;;;;;10.08;100.00;99013.75;5051775;28;20072;-73
2023/11/06 05:50:22;;;;;;;5.43;0.95;;;;;;;10.11;100.00;99026.78;5059030;28;20057;-74
2023/11/06 05:52:50;;;;;;;4.60;1.13;;;;;;;10.15;100.00;99024.78;5050805;28;20073;-74
2023/11/06 05:55:19;;;;;;;9.00;0.88;;;;;;;10.13;100.00;99024.03;5051859;28;20044;-75
2023/11/06 05:57:48;;;;;;;10.02;1.30;;;;;;;10.16;100.00;99042.34;5040108;28;20048;-75
2023/11/06 06:00:17;;;;;;;8.90;1.50;;;;;;;10.02;100.00;99019.47;5054182;28;20048;-75
2023/11/06 06:02:45;;;;;;;8.43;1.17;;;;;;;10.12;100.00;99046.97;5055327;28;20069;-75
2023/11/06 06:05:17;;;;;;;6.20;1.52;;;;;;;10.11;100.00;99053.22;5036728;28;20175;-74
2023/11/06 06:07:47;;;;;;;5.68;1.05;;;;;;;10.07;100.00;99046.44;5042416;28;20060;-74
2023/11/06 06:10:15;;;;;;;7.63;1.52;;;;;;;10.06;100.00;99058.00;5052340;28;20056;-74
2023/11/06 06:12:44;;;;;;;10.48;1.40;;;;;;;10.05;100.00;99060.72;5053426;28;20278;-74
2023/11/06 06:15:15;;;;;;;8.20;1.40;;;;;;;10.02;100.00;99060.94;5055466;28;20041;-74
2023/11/06 06:17:44;;;;;;;7.80;1.30;;;;;;;9.94;100.00;99058.78;5047709;28;20071;-74
2023/11/06 06:20:16;;;;;;;10.93;1.27;;;;;;;10.01;100.00;99070.66;5039835;28;20065;-73
2023/11/06 06:22:46;;;;;;;5.97;1.13;;;;;;;9.95;100.00;99059.63;5040500;28;20049;-74
2023/11/06 06:25:16;;;;;;;10.48;1.38;;;;;;;10.04;100.00;99080.19;5046968;28;20044;-74
2023/11/06 06:27:49;;;;;;;5.57;1.10;;;;;;;10.04;100.00;99070.47;5057833;28;20047;-74
2023/11/06 06:30:17;;;;;;;7.63;1.30;;;;;;;10.12;100.00;99078.72;5046572;28;20112;-75
2023/11/06 06:32:45;;;;;;;8.40;1.42;;;;;;;10.10;100.00;99082.41;5049356;28;20041;-75
2023/11/06 06:35:20;;;;;;;9.93;2.00;;;;;;;10.08;100.00;99087.81;5063159;28;20141;-74
2023/11/06 06:37:51;;;;;;;7.10;1.33;;;;;;;10.03;100.00;99092.56;5056972;28;20044;-75
2023/11/06 06:40:21;;;;;;;5.78;1.52;;;;;;;10.04;100.00;99098.72;5060726;28;20044;-76
2023/11/06 06:42:50;;;;;;;7.93;1.38;;;;;;;10.04;100.00;99096.06;5055055;28;20069;-74
2023/11/06 06:45:18;;;;;;;7.63;1.70;;;;;;;10.03;100.00;99097.84;5054953;28;20069;-76
2023/11/06 06:47:47;;;;;;;12.45;1.63;;;;;;;9.96;100.00;99088.59;5046900;28;20466;-74
2023/11/06 06:50:15;;;;;;;12.65;1.65;;;;;;;10.04;100.00;99102.19;5049408;28;20627;-72
2023/11/06 06:52:46;;;;;;;7.65;1.60;;;;;;;10.05;100.00;99103.03;5058077;28;20069;-75
2023/11/06 06:55:17;;;;;;;7.10;1.60;;;;;;;10.09;100.00;99115.94;5036674;28;20484;-75
2023/11/06 06:57:45;;;;;;;6.72;1.60;;;;;;;10.09;100.00;99121.25;5066120;28;20073;-74
2023/11/06 07:00:15;;;;;;;7.72;1.70;;;;;;;10.07;100.00;99101.97;5053951;28;20059;-74
2023/11/06 07:02:44;;;;;;;;;;;;;;;10.16;100.00;99129.63;5047411;28;20041;-74
2023/11/06 07:05:12;;;;;;;6.32;1.50;;;;;;;10.13;100.00;99117.44;5070264;28;20377;-74
2023/11/06 07:07:41;;;;;;;11.05;1.90;;;;;;;10.20;100.00;99136.47;5054082;28;20052;-75
2023/11/06 07:10:10;;;;;;;4.97;1.40;;;;;;;10.18;100.00;99146.25;5039910;28;20041;-75
2023/11/06 07:12:39;;;;;;;6.43;1.30;;;;;;;10.18;100.00;99156.84;5061580;28;20091;-75
2023/11/06 07:15:08;;;;;;;6.40;1.35;;;;;;;10.19;100.00;99159.44;5061413;28;20044;-73
2023/11/06 07:17:39;;;;;;;8.43;1.73;;;;;;;10.19;100.00;99154.13;5056042;28;20045;-75
2023/11/06 07:20:10;;;;;;;9.15;1.80;;;;;;;10.25;100.00;99165.25;5053066;28;20057;-74
2023/11/06 07:22:42;;;;;;;8.60;1.67;;;;;;;10.34;100.00;99164.66;5055789;28;20048;-74
2023/11/06 07:25:17;;;;;;;7.32;1.85;;;;;;;10.35;100.00;99169.84;5065256;28;20132;-74
2023/11/06 07:27:49;;;;;;;11.13;1.65;;;;;;;10.41;100.00;99171.22;5061168;28;20053;-74
2023/11/06 07:30:17;;;;;;;7.85;1.27;;;;;;;10.46;100.00;99169.13;5044947;28;20068;-73
2023/11/06 07:32:45;;;;;;;14.82;1.67;;;;;;;10.50;100.00;99184.72;5056891;28;20045;-74
2023/11/06 07:35:13;;;;;;;8.85;1.90;;;;;;;10.53;100.00;99178.38;5066792;28;20045;-75
2023/11/06 07:37:41;;;;;;;7.75;1.50;;;;;;;10.62;100.00;99179.56;5047452;28;20037;-74
2023/11/06 07:40:13;;;;;;;6.63;1.27;;;;;;;10.65;100.00;99180.22;5049506;28;20482;-73
2023/11/06 07:42:44;;;;;;;9.07;1.55;;;;;;;10.72;100.00;99197.38;5056658;28;20044;-73
2023/11/06 07:45:12;;;;;;;9.98;2.10;;;;;;;10.75;100.00;99198.97;5048824;28;20099;-74
2023/11/06 07:47:43;;;;;;;9.77;1.92;;;;;;;10.88;100.00;99205.16;5051847;28;20053;-74
2023/11/06 07:50:13;;;;;;;8.50;1.63;;;;;;;10.87;100.00;99188.41;5046595;28;20049;-74
2023/11/06 07:52:42;;;;;;;7.25;1.75;;;;;;;10.94;100.00;99209.19;5050563;28;20061;-74
2023/11/06 07:55:10;;;;;;;10.52;1.48;;;;;;;10.93;100.00;99202.19;5066638;28;20049;-75
2023/11/06 07:57:41;;;;;;;10.93;1.85;;;;;;;10.99;100.00;99215.03;5060211;28;20045;-75
2023/11/06 08:00:13;;;;;;;8.90;1.40;;;;;;;10.91;100.00;99220.84;5053578;28;20052;-73
2023/11/06 08:02:42;;;;;;;12.05;1.90;;;;;;;10.90;100.00;99225.28;5054785;28;20033;-73
2023/11/06 08:05:11;;;;;;;8.98;1.40;;;;;;;11.00;100.00;99225.53;5049293;28;20041;-73
2023/11/06 08:07:40;;;;;;;10.57;1.52;;;;;;;11.09;100.00;99229.34;5035654;28;20104;-73
2023/11/06 08:10:13;;;;;;;6.40;1.52;;;;;;;11.11;100.00;99241.56;5025049;28;20052;-73
2023/11/06 08:12:42;;;;;;;10.88;1.42;;;;;;;11.08;100.00;99244.41;5050003;28;20041;-74
2023/11/06 08:15:14;;;;;;;;;;;;;;;11.07;100.00;99241.84;5051005;28;20526;-74
2023/11/06 08:17:41;;;;;;;9.17;1.80;;;;;;;11.11;100.00;99248.66;5033530;28;19956;-75
2023/11/06 08:20:11;;;;;;;6.68;0.95;;;;;;;11.23;100.00;99258.41;5027045;28;21049;-73
2023/11/06 08:22:40;;;;;;;13.88;2.38;;;;;;;11.37;100.00;99247.72;5053544;28;20095;-73
2023/11/06 08:25:11;;;;;;;8.13;1.37;;;;;;;11.57;100.00;99264.91;5070587;28;20565;-78
2023/11/06 08:27:44;;;;;;;10.38;1.90;;;;;;;11.63;100.00;99245.94;5049724;28;20387;-74
2023/11/06 08:30:15;;;;;;;14.85;4.00;;;;;;;11.72;100.00;99270.97;5044943;28;20049;-74
2023/11/06 08:32:43;;;;;;;8.55;1.17;;;;;;;11.66;100.00;99281.97;5052664;28;20060;-73
2023/11/06 08:35:11;;;;;;;6.53;1.85;;;;;;;11.52;100.00;99278.47;5045834;28;20071;-73
2023/11/06 08:37:42;;;;;;;11.20;1.75;;;;;;;11.57;100.00;99284.31;5047194;28;20064;-74
2023/11/06 08:40:11;;;;;;;9.45;1.48;;;;;;;11.49;100.00;99264.59;5041197;28;20517;-75
2023/11/06 08:42:40;;;;;;;7.63;1.60;;;;;;;11.61;100.00;99282.31;5051784;28;20476;-74
2023/11/06 08:45:08;;;;;;;10.23;2.28;;;;;;;11.69;100.00;99281.78;5045587;28;20045;-74
2023/11/06 08:47:39;;;;;;;10.27;1.48;;;;;;;11.74;100.00;99290.28;5051528;28;20045;-75
2023/11/06 08:50:10;;;;;;;11.93;1.80;;;;;;;11.78;100.00;99287.34;5038338;28;20090;-73
2023/11/06 08:52:49;;;;;;;9.82;1.75;;;;;;;11.87;100.00;99278.72;5046488;28;20120;-76
2023/11/06 08:55:18;;;;;;;7.35;1.40;;;;;;;12.01;100.00;99296.34;5050701;28;20505;-73
2023/11/06 08:57:49;;;;;;;8.93;1.40;;;;;;;12.04;100.00;99289.97;5053055;28;20060;-74
2023/11/06 09:00:18;;;;;;;15.63;2.00;;;;;;;11.92;100.00;99283.72;5046349;28;20049;-74
2023/11/06 09:02:49;;;;;;;11.30;1.83;;;;;;;11.82;100.00;99256.97;5049196;28;20065;-75
2023/11/06 09:05:18;;;;;;;9.88;1.60;;;;;;;12.00;100.00;99277.88;5052821;28;20045;-74
2023/11/06 09:07:49;;;;;;;9.15;1.95;;;;;;;12.09;100.00;99301.13;5046636;28;20069;-76
2023/11/06 09:10:17;;;;;;;7.88;1.50;;;;;;;11.90;100.00;99290.94;5038888;28;20133;-75
2023/11/06 09:12:47;;;;;;;6.70;1.60;;;;;;;12.08;100.00;99310.88;5045839;28;20069;-75
2023/11/06 09:15:20;;;;;;;8.68;1.83;;;;;;;12.22;100.00;99315.22;5051892;28;20044;-74
2023/11/06 09:17:53;;;;;;;10.65;1.70;;;;;;;12.23;100.00;99307.13;5047630;28;20044;-74
2023/11/06 09:20:22;;;;;;;8.88;1.83;;;;;;;12.34;100.00;99311.69;5041759;28;20726;-75
2023/11/06 09:22:50;;;;;;;10.45;1.85;;;;;;;12.37;100.00;99322.06;5050991;28;20524;-74
2023/11/06 09:25:19;;;;;;;9.75;2.00;;;;;;;12.44;100.00;99323.31;5055588;28;20532;-74
2023/11/06 09:27:48;;;;;;;9.02;1.58;;;;;;;12.45;100.00;99332.13;5059822;28;20080;-75
2023/11/06 09:30:16;;;;;;;10.25;1.63;;;;;;;12.47;100.00;99327.56;5069207;28;20059;-75
2023/11/06 09:32:45;;;;;;;7.93;1.90;;;;;;;12.49;100.00;99329.16;5050473;28;20057;-75
2023/11/06 09:35:15;;;;;;;8.52;1.60;;;;;;;12.54;100.00;99324.38;5033825;28;20041;-74
2023/11/06 09:37:45;;;;;;;6.85;1.60;;;;;;;12.64;100.00;99336.03;5045863;28;20091;-74
2023/11/06 09:40:21;;;;;;;10.20;2.33;;;;;;;12.56;100.00;99333.09;5039919;28;20060;-75
2023/11/06 09:42:50;;;;;;;12.23;1.63;;;;;;;12.69;100.00;99337.50;5018074;28;20652;-74
2023/11/06 09:45:18;;;;;;;7.25;1.83;;;;;;;12.88;100.00;99332.56;5054992;28;20045;-74
2023/11/06 09:47:50;;;;;;;13.75;1.95;;;;;;;12.91;100.00;99337.63;5050878;28;20128;-73
2023/11/06 09:50:23;;;;;;;10.52;1.60;;;;;;;12.70;100.00;99341.88;5038553;28;20060;-75
2023/11/06 09:52:55;;;;;;;10.32;1.73;;;;;;;12.66;100.00;99349.19;5051064;28;20049;-74
2023/11/06 09:55:26;;;;;;;8.27;1.67;;;;;;;12.67;100.00;99344.75;5048488;28;20369;-76
2023/11/06 09:57:58;;;;;;;6.57;1.52;;;;;;;12.79;100.00;99336.72;5046729;28;20049;-74
2023/11/06 10:00:29;;;;;;;10.68;1.73;;;;;;;12.93;100.00;99336.56;5042786;28;20045;-74
2023/11/06 10:02:57;;;;;;;9.52;1.63;;;;;;;12.96;100.00;99338.16;5032334;28;20060;-75
2023/11/06 10:05:29;;;;;;;11.63;2.67;;;;;;;13.10;100.00;99353.91;5036541;28;20040;-74
2023/11/06 10:07:59;;;;;;;11.30;3.05;;;;;;;13.01;100.00;99346.63;5048832;28;20057;-75
2023/11/06 10:10:29;;;;;;;12.73;1.85;;;;;;;12.90;100.00;99350.09;5041449;28;20060;-74
2023/11/06 10:13:04;;;;;;;;;;;;;;;12.92;100.00;99353.47;5047485;28;20049;-74
2023/11/06 10:15:35;;;;;;;10.85;1.70;;;;;;;12.88;100.00;99333.41;5067313;28;19960;-74
2023/11/06 10:18:13;;;;;;;9.00;1.35;;;;;;;12.91;100.00;99342.94;5050529;28;20378;-74
2023/11/06 10:20:49;;;;;;;6.38;1.38;;;;;;;12.95;100.00;99349.72;5057677;28;20113;-75
2023/11/06 10:23:34;;;;;;;10.15;1.80;;;;;;;13.26;100.00;99348.34;5059334;28;20069;-75
2023/11/06 10:26:11;;;;;;;6.25;1.20;;;;;;;13.43;100.00;99345.28;5051917;28;20061;-74
2023/11/06 10:28:41;;;;;;;6.32;2.13;;;;;;;13.45;100.00;99330.06;5046942;28;20048;-73
2023/11/06 10:31:10;;;;;;;7.15;1.33;;;;;;;13.45;100.00;99332.72;5043116;28;20067;-74
2023/11/06 10:33:39;;;;;;;12.23;1.60;;;;;;;13.54;100.00;99332.00;5048722;28;20053;-73
2023/11/06 10:36:17;;;;;;;7.95;2.20;;;;;;;13.67;100.00;99327.47;5061833;28;20090;-76
2023/11/06 10:38:48;;;;;;;6.63;1.42;;;;;;;13.84;100.00;99322.66;5049707;28;20502;-76
2023/11/06 10:41:24;;;;;;;8.20;1.00;;;;;;;14.08;100.00;99325.22;5065311;28;20064;-75
2023/11/06 10:43:59;;;;;;;10.05;1.77;;;;;;;14.07;100.00;99319.03;5051423;28;20041;-75
2023/11/06 10:46:32;;;;;;;7.72;1.50;;;;;;;14.08;100.00;99323.41;5028974;28;20402;-76
2023/11/06 10:49:14;;;;;;;8.95;2.25;;;;;;;13.95;100.00;99328.00;5048639;28;20136;-73
2023/11/06 10:52:03;;;;;;;9.30;1.42;;;;;;;13.63;100.00;99318.03;5049873;28;20047;-74
2023/11/06 10:54:35;;;;;;;9.05;1.55;;;;;;;13.43;100.00;99321.34;5052268;28;20067;-73
2023/11/06 10:57:05;;;;;;;9.88;1.60;;;;;;;13.33;100.00;99317.69;5048341;28;20066;-74
2023/11/06 10:59:39;;;;;;;9.40;1.35;;;;;;;13.30;100.00;99317.91;5042566;28;20720;-74
2023/11/06 11:02:28;;;;;;;9.27;1.63;;;;;;;13.22;100.00;99333.63;5047189;28;20045;-73
2023/11/06 11:05:01;;;;;;;7.95;1.48;;;;;;;13.12;100.00;99308.63;5052307;28;20744;-74
2023/11/06 11:07:33;;;;;;;7.32;1.67;;;;;;;13.28;100.00;99323.34;5044739;28;20192;-73
2023/11/06 11:10:04;;;;;;;8.30;1.70;;;;;;;13.33;100.00;99329.19;5036997;28;21578;-73
2023/11/06 11:12:33;;;;;;;11.67;1.97;;;;;;;13.17;100.00;99311.84;5050271;28;20144;-73
2023/11/06 11:15:04;;;;;;;13.15;1.73;;;;;;;13.21;100.00;99315.97;5054247;28;20480;-75
2023/11/06 11:17:34;;;;;;;10.13;1.60;;;;;;;13.05;100.00;99289.66;5052502;28;20071;-75
2023/11/06 11:20:09;;;;;;;9.05;1.63;;;;;;;13.10;100.00;99318.53;5040332;28;20512;-75
2023/11/06 11:23:07;;;;;;;11.55;2.05;;;;;;;13.19;100.00;99318.72;5040024;28;20041;-75
2023/11/06 11:25:56;;;;;;;9.23;1.77;;;;;;;13.57;100.00;99314.97;5053677;28;20049;-75
2023/11/06 11:28:25;;;;;;;9.02;1.65;;;;;;;13.77;100.00;99308.13;5053555;28;20049;-76
2023/11/06 11:31:43;;;;;;;6.80;1.40;;;;;;;13.71;100.00;99306.78;5050554;28;20067;-74
2023/11/06 11:34:27;;;;;;;10.15;1.77;;;;;;;13.49;100.00;99309.41;5041053;28;20056;-75
2023/11/06 11:36:56;;;;;;;9.90;2.05;;;;;;;13.16;100.00;99263.13;5050939;28;20045;-76
2023/11/06 11:39:32;;;;;;;8.55;1.30;;;;;;;13.50;100.00;99295.16;5049789;28;20048;-74